Leeds, Maine
Current Conditions -  °F | °C
As of 2:53 AM on Saturday 29 Nov 2014 (Local Time) from KAUG Reporting Station
Clear Clear  
Wind Chill: 10°   Ceiling: Unl
Heat Index: 19°   Visibility: 10mi
Dew Point: 10°   Wind: 7mph
Humidity: 68%   Direction: 290°WNW
Pressure: 30.19"   Gusts: NA
Location:  44.35°N, 70.12°W
Report Text: KAUG 290753Z AUTO 29006KT 10SM CLR M07/M12 A3019 RMK AO2 SLP229 T10721122
Loading
Personal Weather Stations






























Interactive Weather Map New forecast layout! Learn more

10-Day Weather Forecast

Advertisements
Track Severe Weather on mobile